createdAt,value
2023-02-05T00:02:39.794Z,4.60
2023-02-05T00:05:44.770Z,4.53
2023-02-05T00:08:48.420Z,4.20
2023-02-05T00:11:52.318Z,4.20
2023-02-05T00:14:55.962Z,6.10
2023-02-05T00:17:59.564Z,3.33
2023-02-05T00:21:05.038Z,5.63
2023-02-05T00:24:09.028Z,4.33
2023-02-05T00:27:12.561Z,4.10
2023-02-05T00:30:16.258Z,4.07
2023-02-05T00:33:19.825Z,4.47
2023-02-05T00:36:25.122Z,6.87
2023-02-05T00:39:28.774Z,4.10
2023-02-05T00:42:32.361Z,4.93
2023-02-05T00:45:36.302Z,4.30
2023-02-05T00:48:41.773Z,4.87
2023-02-05T00:51:46.733Z,3.33
2023-02-05T00:54:50.327Z,5.70
2023-02-05T00:57:54.085Z,2.90
2023-02-05T01:00:59.456Z,5.03
2023-02-05T01:04:03.016Z,4.20
2023-02-05T01:07:08.013Z,5.73
2023-02-05T01:10:11.957Z,4.63
2023-02-05T01:13:18.085Z,3.97
2023-02-05T01:16:21.896Z,3.67
2023-02-05T01:19:25.514Z,3.53
2023-02-05T01:22:30.646Z,3.53
2023-02-05T01:25:34.649Z,3.73
2023-02-05T01:28:38.426Z,5.33
2023-02-05T01:31:42.092Z,3.40
2023-02-05T01:34:46.547Z,4.50
2023-02-05T01:37:51.633Z,3.77
2023-02-05T01:40:55.230Z,3.67
2023-02-05T01:44:11.477Z,3.27
2023-02-05T01:47:15.104Z,3.50
2023-02-05T01:50:23.072Z,3.70
2023-02-05T01:53:33.693Z,6.43
2023-02-05T01:56:43.959Z,4.27
2023-02-05T01:59:50.138Z,3.47
2023-02-05T02:02:54.725Z,5.23
2023-02-05T02:05:58.355Z,4.57
2023-02-05T02:09:05.814Z,3.63
2023-02-05T02:12:11.605Z,3.57
2023-02-05T02:15:19.456Z,6.00
2023-02-05T02:18:27.727Z,5.90
2023-02-05T02:21:58.257Z,4.33
2023-02-05T02:25:50.163Z,2.80
2023-02-05T02:29:02.953Z,4.20
2023-02-05T02:32:20.075Z,5.83
2023-02-05T02:35:32.257Z,3.00
2023-02-05T02:38:42.557Z,3.73
2023-02-05T02:41:54.050Z,4.87
2023-02-05T02:45:02.817Z,4.67
2023-02-05T02:48:09.149Z,5.43
2023-02-05T02:51:16.672Z,4.47
2023-02-05T02:54:25.614Z,4.93
2023-02-05T02:57:30.980Z,4.97
2023-02-05T03:00:39.118Z,4.27
2023-02-05T03:03:52.389Z,4.47
2023-02-05T03:07:03.168Z,4.33
2023-02-05T03:10:15.698Z,5.53
2023-02-05T03:13:20.014Z,4.90
2023-02-05T03:16:28.050Z,7.53
2023-02-05T03:19:32.142Z,7.23
2023-02-05T03:22:35.751Z,6.87
2023-02-05T03:25:39.432Z,3.80
2023-02-05T03:28:43.053Z,6.40
2023-02-05T03:32:02.823Z,4.70
2023-02-05T03:35:34.066Z,4.57
2023-02-05T03:39:01.728Z,6.10
2023-02-05T03:42:19.229Z,5.00
2023-02-05T03:45:38.721Z,5.77
2023-02-05T03:49:02.265Z,6.90
2023-02-05T03:52:13.616Z,6.30
2023-02-05T03:55:23.569Z,6.80
2023-02-05T03:58:33.100Z,5.60
2023-02-05T04:01:37.489Z,6.83
2023-02-05T04:04:42.789Z,4.90
2023-02-05T04:07:46.391Z,5.40
2023-02-05T04:10:49.939Z,5.70
2023-02-05T04:13:53.469Z,4.90
2023-02-05T04:16:57.118Z,6.37
2023-02-05T04:20:02.142Z,6.27
2023-02-05T04:23:05.788Z,3.90
2023-02-05T04:26:09.432Z,5.93
2023-02-05T04:29:13.161Z,5.70
2023-02-05T04:32:16.807Z,4.83
2023-02-05T04:35:21.848Z,7.00
2023-02-05T04:38:25.496Z,6.40
2023-02-05T04:41:29.189Z,6.33
2023-02-05T04:44:32.831Z,5.67
2023-02-05T04:47:36.951Z,6.93
2023-02-05T04:50:42.176Z,6.43
2023-02-05T04:53:45.882Z,5.70
2023-02-05T04:56:49.533Z,7.77
2023-02-05T04:59:53.289Z,7.23
2023-02-05T05:02:57.720Z,5.00
2023-02-05T05:06:07.811Z,5.37
2023-02-05T05:09:11.452Z,11.13
2023-02-05T05:12:15.204Z,6.93
2023-02-05T05:15:18.898Z,8.20
2023-02-05T05:18:22.595Z,6.83
2023-02-05T05:21:27.625Z,8.30
2023-02-05T05:24:31.420Z,5.50
2023-02-05T05:27:35.014Z,6.37
2023-02-05T05:30:40.626Z,6.37
2023-02-05T05:33:47.181Z,5.70
2023-02-05T05:36:53.526Z,6.93
2023-02-05T05:40:14.286Z,6.53
2023-02-05T05:43:38.037Z,6.90
2023-02-05T05:46:41.632Z,6.97
2023-02-05T05:49:45.423Z,9.33
2023-02-05T05:52:50.410Z,9.03
2023-02-05T05:55:54.079Z,5.10
2023-02-05T05:58:57.652Z,6.60
2023-02-05T06:02:03.123Z,4.93
2023-02-05T06:05:07.260Z,5.90
2023-02-05T06:08:12.729Z,5.93
2023-02-05T06:11:16.621Z,7.40
2023-02-05T06:14:20.362Z,6.60
2023-02-05T06:17:24.347Z,6.57
2023-02-05T06:20:28.232Z,7.50
2023-02-05T06:23:33.568Z,8.07
2023-02-05T06:26:40.212Z,6.10
2023-02-05T06:29:43.890Z,7.00
2023-02-05T06:32:47.619Z,11.13
2023-02-05T06:35:51.240Z,8.97
2023-02-05T06:38:56.266Z,9.50
2023-02-05T06:42:00.179Z,7.57
2023-02-05T06:45:04.096Z,6.77
2023-02-05T06:48:07.934Z,9.97
2023-02-05T06:51:11.518Z,6.97
2023-02-05T06:54:16.600Z,8.97
2023-02-05T06:57:20.247Z,7.10
2023-02-05T07:00:24.139Z,9.60
2023-02-05T07:03:27.796Z,13.33
2023-02-05T07:06:31.373Z,9.43
2023-02-05T07:09:36.377Z,9.90
2023-02-05T07:12:39.955Z,6.97
2023-02-05T07:15:49.844Z,8.80
2023-02-05T07:18:54.845Z,8.83
2023-02-05T07:21:58.545Z,7.80
2023-02-05T07:25:04.753Z,10.23
2023-02-05T07:28:09.983Z,11.17
2023-02-05T07:31:17.263Z,9.70
2023-02-05T07:34:21.158Z,7.80
2023-02-05T07:37:24.780Z,9.10
2023-02-05T07:40:29.813Z,9.10
2023-02-05T07:43:33.543Z,10.67
2023-02-05T07:46:37.330Z,9.10
2023-02-05T07:49:41.160Z,8.83
2023-02-05T07:52:44.923Z,10.00
2023-02-05T07:55:50.594Z,8.67
2023-02-05T07:58:54.292Z,11.90
2023-02-05T08:01:57.894Z,9.07
2023-02-05T08:05:01.465Z,8.70
2023-02-05T08:08:06.200Z,9.00
2023-02-05T08:11:16.174Z,9.00
2023-02-05T08:14:31.271Z,8.56
2023-02-05T08:17:34.953Z,9.60
2023-02-05T08:20:38.640Z,8.23
2023-02-05T08:23:42.217Z,11.00
2023-02-05T08:26:47.396Z,8.77
2023-02-05T08:29:51.011Z,9.80
2023-02-05T08:32:54.784Z,9.63
2023-02-05T08:35:59.804Z,9.37
2023-02-05T08:39:03.570Z,10.77
2023-02-05T08:42:08.816Z,9.47
2023-02-05T08:45:12.531Z,8.53
2023-02-05T08:48:16.532Z,9.97
2023-02-05T08:51:23.018Z,9.23
2023-02-05T08:54:27.181Z,9.80
2023-02-05T08:57:32.424Z,7.97
2023-02-05T09:00:38.048Z,9.70
2023-02-05T09:03:42.162Z,9.13
2023-02-05T09:06:46.570Z,10.10
2023-02-05T09:09:52.248Z,11.23
2023-02-05T09:12:57.261Z,9.30
2023-02-05T09:16:01.274Z,9.77
2023-02-05T09:19:07.787Z,8.17
2023-02-05T09:22:11.956Z,10.77
2023-02-05T09:25:15.751Z,12.97
2023-02-05T09:28:20.859Z,8.70
2023-02-05T09:31:24.646Z,8.57
2023-02-05T09:34:28.555Z,8.03
2023-02-05T09:37:32.191Z,7.77
2023-02-05T09:40:44.411Z,7.67
2023-02-05T09:43:58.668Z,8.63
2023-02-05T09:47:12.161Z,8.43
2023-02-05T09:50:26.146Z,10.33
2023-02-05T09:53:38.217Z,10.30
2023-02-05T09:56:43.580Z,8.10
2023-02-05T09:59:49.473Z,10.17
2023-02-05T10:03:02.844Z,9.20
2023-02-05T10:06:34.563Z,8.03
2023-02-05T10:10:01.094Z,8.70
2023-02-05T10:13:37.057Z,7.53
2023-02-05T10:17:08.668Z,7.80
2023-02-05T10:20:31.519Z,8.33
2023-02-05T10:23:59.577Z,8.67
2023-02-05T10:27:17.344Z,8.00
2023-02-05T10:30:30.625Z,9.73
2023-02-05T10:33:50.092Z,11.83
2023-02-05T10:36:55.578Z,8.80
2023-02-05T10:40:00.978Z,8.00
2023-02-05T10:43:23.061Z,10.23
2023-02-05T10:46:34.980Z,11.83
2023-02-05T10:49:51.857Z,7.33
2023-02-05T10:52:55.752Z,8.37
2023-02-05T10:56:02.963Z,10.33
2023-02-05T10:59:07.455Z,11.83
2023-02-05T11:02:12.298Z,10.33
2023-02-05T11:05:26.118Z,8.73
2023-02-05T11:08:36.437Z,11.50
2023-02-05T11:11:41.432Z,9.40
2023-02-05T11:14:49.403Z,8.93
2023-02-05T11:17:57.877Z,9.40
2023-02-05T11:21:08.720Z,10.53
2023-02-05T11:24:31.739Z,10.27
2023-02-05T11:27:38.704Z,10.03
2023-02-05T11:30:50.831Z,8.03
2023-02-05T11:34:16.112Z,10.17
2023-02-05T11:37:21.445Z,10.60
2023-02-05T11:40:30.938Z,9.47
2023-02-05T11:43:39.188Z,12.07
2023-02-05T11:46:47.389Z,10.40
2023-02-05T11:49:52.799Z,11.67
2023-02-05T11:53:14.774Z,13.60
2023-02-05T11:56:25.547Z,13.43
2023-02-05T11:59:29.629Z,13.80
2023-02-05T12:02:36.731Z,12.60
2023-02-05T12:05:47.910Z,14.97
2023-02-05T12:08:55.049Z,15.90
2023-02-05T12:12:11.811Z,12.90
2023-02-05T12:15:25.145Z,14.33
2023-02-05T12:18:49.368Z,15.83
2023-02-05T12:22:03.503Z,26.23
2023-02-05T12:25:20.906Z,69.40
2023-02-05T12:28:45.485Z,14.70
2023-02-05T12:32:12.933Z,16.13
2023-02-05T12:35:35.634Z,14.63
2023-02-05T12:39:03.795Z,15.10
2023-02-05T12:42:23.426Z,15.70
2023-02-05T12:45:49.128Z,16.60
2023-02-05T12:49:17.808Z,20.43
2023-02-05T12:52:40.596Z,20.90
2023-02-05T12:56:11.381Z,19.10
2023-02-05T12:59:24.526Z,19.53
2023-02-05T13:02:37.985Z,16.27
2023-02-05T13:05:47.450Z,18.10
2023-02-05T13:08:57.172Z,21.70
2023-02-05T13:12:09.782Z,20.47
2023-02-05T13:15:22.152Z,18.50
2023-02-05T13:18:31.358Z,17.87
2023-02-05T13:21:52.649Z,19.10
2023-02-05T13:25:24.778Z,17.30
2023-02-05T13:28:41.499Z,19.27
2023-02-05T13:31:51.261Z,22.07
2023-02-05T13:34:56.738Z,20.30
2023-02-05T13:38:32.323Z,62.03
2023-02-05T13:42:06.275Z,28.50
2023-02-05T13:45:53.768Z,27.13
2023-02-05T13:49:38.292Z,24.67
2023-02-05T13:53:19.014Z,20.43
2023-02-05T13:56:49.638Z,23.43
2023-02-05T13:59:55.261Z,24.33
2023-02-05T14:03:05.799Z,24.93
2023-02-05T14:06:30.376Z,22.87
2023-02-05T14:09:42.567Z,23.30
2023-02-05T14:12:46.238Z,23.93
2023-02-05T14:15:50.923Z,25.63
2023-02-05T14:19:21.876Z,22.87
2023-02-05T14:22:42.317Z,25.97
2023-02-05T14:26:11.915Z,23.40
2023-02-05T14:29:42.170Z,28.13
2023-02-05T14:33:02.565Z,23.53
2023-02-05T14:36:44.648Z,27.03
2023-02-05T14:39:49.716Z,25.60
2023-02-05T14:43:09.554Z,24.30
2023-02-05T14:46:29.966Z,30.07
2023-02-05T14:49:42.950Z,28.03
2023-02-05T14:52:53.688Z,30.50
2023-02-05T14:56:00.136Z,33.30
2023-02-05T14:59:19.097Z,25.43
2023-02-05T15:03:26.693Z,26.13
2023-02-05T15:06:38.961Z,25.27
2023-02-05T15:09:52.337Z,24.80
2023-02-05T15:13:05.360Z,22.77
2023-02-05T15:16:23.504Z,26.23
2023-02-05T15:19:27.327Z,23.10
2023-02-05T15:22:38.553Z,23.07
2023-02-05T15:25:48.412Z,24.13
2023-02-05T15:29:03.502Z,25.23
2023-02-05T15:32:19.805Z,28.47
2023-02-05T15:35:27.362Z,22.57
2023-02-05T15:38:42.254Z,24.80
2023-02-05T15:41:48.168Z,29.90
2023-02-05T15:44:53.888Z,26.20
2023-02-05T15:48:03.222Z,27.23
2023-02-05T15:51:20.110Z,22.67
2023-02-05T15:54:25.946Z,25.83
2023-02-05T15:57:33.157Z,24.90
2023-02-05T16:00:41.876Z,22.37
2023-02-05T16:03:45.558Z,25.10
2023-02-05T16:06:50.219Z,26.57
2023-02-05T16:09:58.773Z,26.77
2023-02-05T16:13:05.874Z,25.90
2023-02-05T16:16:24.243Z,25.70
2023-02-05T16:19:36.232Z,26.23
2023-02-05T16:22:45.497Z,37.67
2023-02-05T16:25:54.947Z,29.60
2023-02-05T16:29:06.014Z,27.37
2023-02-05T16:32:27.686Z,32.93
2023-02-05T16:35:39.137Z,31.23
2023-02-05T16:38:43.132Z,29.10
2023-02-05T16:41:57.687Z,31.50
2023-02-05T16:45:22.969Z,31.43
2023-02-05T16:48:32.221Z,29.13
2023-02-05T16:51:52.607Z,31.90
2023-02-05T16:54:56.673Z,26.27
2023-02-05T16:58:07.028Z,32.37
2023-02-05T17:01:11.630Z,32.60
2023-02-05T17:04:27.690Z,32.97
2023-02-05T17:07:32.849Z,35.93
2023-02-05T17:10:51.629Z,33.57
2023-02-05T17:14:31.397Z,31.77
2023-02-05T17:17:49.699Z,37.53
2023-02-05T17:21:24.355Z,26.10
2023-02-05T17:24:28.209Z,30.13
2023-02-05T17:27:37.163Z,32.10
2023-02-05T17:30:43.350Z,30.57
2023-02-05T17:33:52.278Z,30.10
2023-02-05T17:36:57.350Z,32.30
2023-02-05T17:40:00.917Z,30.10
2023-02-05T17:43:04.810Z,26.20
2023-02-05T17:46:13.958Z,30.63
2023-02-05T17:49:18.647Z,28.10
2023-02-05T17:52:23.965Z,30.17
2023-02-05T17:55:33.980Z,35.13
2023-02-05T17:58:37.597Z,43.20
2023-02-05T18:01:41.329Z,36.03
2023-02-05T18:04:46.092Z,34.73
2023-02-05T18:07:54.364Z,32.33
2023-02-05T18:10:58.174Z,29.13
2023-02-05T18:14:02.106Z,30.83
2023-02-05T18:17:06.059Z,31.13
2023-02-05T18:20:13.897Z,31.27
2023-02-05T18:23:28.808Z,31.03
2023-02-05T18:26:33.891Z,28.53
2023-02-05T18:29:38.081Z,31.27
2023-02-05T18:32:41.855Z,24.87
2023-02-05T18:35:45.493Z,25.63
2023-02-05T18:38:50.697Z,29.27
2023-02-05T18:41:54.436Z,25.23
2023-02-05T18:44:57.967Z,28.10
2023-02-05T18:48:03.854Z,32.63
2023-02-05T18:51:09.613Z,36.97
2023-02-05T18:54:14.785Z,37.10
2023-02-05T18:57:19.337Z,38.37
2023-02-05T19:00:23.023Z,45.80
2023-02-05T19:03:27.138Z,48.27
2023-02-05T19:06:31.233Z,42.43
2023-02-05T19:09:36.711Z,40.40
2023-02-05T19:12:40.289Z,37.23
2023-02-05T19:15:43.981Z,34.23
2023-02-05T19:18:48.706Z,31.13
2023-02-05T19:21:53.741Z,29.63
2023-02-05T19:24:59.022Z,35.10
2023-02-05T19:28:02.791Z,34.43
2023-02-05T19:31:09.914Z,30.87
2023-02-05T19:34:15.009Z,31.37
2023-02-05T19:37:18.918Z,25.53
2023-02-05T19:40:23.969Z,34.70
2023-02-05T19:43:27.683Z,31.40
2023-02-05T19:46:35.067Z,28.60
2023-02-05T19:49:38.777Z,26.37
2023-02-05T19:52:43.798Z,28.13
2023-02-05T19:55:48.848Z,33.07
2023-02-05T19:58:55.522Z,30.40
2023-02-05T20:01:59.553Z,39.77
2023-02-05T20:05:03.234Z,41.23
2023-02-05T20:08:07.098Z,39.07
2023-02-05T20:11:13.739Z,39.97
2023-02-05T20:14:18.435Z,36.37
2023-02-05T20:17:22.169Z,41.70
2023-02-05T20:20:33.486Z,39.00
2023-02-05T20:23:38.583Z,35.70
2023-02-05T20:26:44.729Z,33.27
2023-02-05T20:30:17.376Z,29.37
2023-02-05T20:33:20.936Z,47.37
2023-02-05T20:36:24.633Z,44.87
2023-02-05T20:39:30.451Z,45.53
2023-02-05T20:42:35.404Z,42.30
2023-02-05T20:45:38.998Z,44.80
2023-02-05T20:48:42.806Z,43.47
2023-02-05T20:51:46.432Z,34.43
2023-02-05T20:54:50.195Z,28.57
2023-02-05T20:57:55.228Z,33.57
2023-02-05T21:01:08.015Z,32.63
2023-02-05T21:04:12.872Z,30.20
2023-02-05T21:07:16.625Z,30.03
2023-02-05T21:10:22.305Z,30.83
2023-02-05T21:13:28.274Z,33.43
2023-02-05T21:16:33.839Z,42.43
2023-02-05T21:19:37.430Z,34.70
2023-02-05T21:22:41.083Z,30.77
2023-02-05T21:25:45.467Z,29.77
2023-02-05T21:28:55.238Z,26.70
2023-02-05T21:31:58.866Z,34.10
2023-02-05T21:35:02.615Z,31.07
2023-02-05T21:38:06.250Z,30.70
2023-02-05T21:41:12.354Z,32.23
2023-02-05T21:44:17.780Z,30.57
2023-02-05T21:47:21.484Z,27.67
2023-02-05T21:50:25.240Z,24.13
2023-02-05T21:53:29.451Z,25.37
2023-02-05T21:56:36.598Z,21.27
2023-02-05T21:59:41.639Z,23.37
2023-02-05T22:02:45.378Z,27.60
2023-02-05T22:05:49.079Z,29.33
2023-02-05T22:08:53.344Z,28.07
2023-02-05T22:12:03.537Z,27.27
2023-02-05T22:15:09.548Z,26.80
2023-02-05T22:18:13.214Z,20.23
2023-02-05T22:21:20.339Z,22.77
2023-02-05T22:24:24.059Z,22.17
2023-02-05T22:27:28.146Z,20.30
2023-02-05T22:30:33.249Z,23.27
2023-02-05T22:33:39.614Z,23.53
2023-02-05T22:36:43.493Z,24.17
2023-02-05T22:39:47.292Z,22.50
2023-02-05T22:42:50.932Z,18.53
2023-02-05T22:45:55.988Z,49.23
2023-02-05T22:49:02.337Z,41.43
2023-02-05T22:52:06.015Z,22.23
2023-02-05T22:55:09.992Z,46.23
2023-02-05T22:58:13.613Z,36.57
2023-02-05T23:01:21.927Z,33.03
2023-02-05T23:04:25.552Z,26.47
2023-02-05T23:07:29.302Z,27.57
2023-02-05T23:10:32.909Z,32.47
2023-02-05T23:13:37.137Z,20.37
2023-02-05T23:16:45.478Z,22.77
2023-02-05T23:19:52.862Z,26.47
2023-02-05T23:22:57.451Z,32.13
2023-02-05T23:26:08.336Z,30.00
2023-02-05T23:29:15.227Z,31.33
2023-02-05T23:32:20.474Z,32.30
2023-02-05T23:35:24.240Z,32.83
2023-02-05T23:38:28.218Z,32.30
2023-02-05T23:41:40.063Z,25.90
2023-02-05T23:44:43.958Z,28.23
2023-02-05T23:47:49.066Z,27.73
2023-02-05T23:50:53.849Z,28.20
2023-02-05T23:53:57.476Z,27.07
2023-02-05T23:57:01.419Z,26.60
